Delia, KS

4:03 AM CDT on June 03, 2015 (GMT -0500)
MesoWest | | Change Station
CLOSE
Current Station
Personal Weather Station
Location: Delia, KS
Elevation: 980 ft
Nearby Weather Stations

Elev 980 ft 39.24 °N, 95.96 °W | Updated 6 days ago

Partly Cloudy
Partly Cloudy
66 °F
Feels Like 66 °F
N
10
Wind Variable Wind from SSE
Gusts 17 mph

Today
High -- | Low -- °F
--% Chance of Precip.
Yesterday
High -- | Low -- °F
Precip. -- in
5:58 AM 8:45 PM
Waxing Gibbous, 99% visible
Pressure 29.87 in
Visibility 10.0 miles
Clouds Few 6500 ft
Dew Point 65 °F
Humidity 96%
Rainfall in
Snow Depth Not available.
UV 0 out of 12
Pollen 7.50 out of 12
Air Quality Not available.
Flu Activity No Activity
METAR KTOP 030853Z AUTO 12006KT 10SM FEW065 19/18 A2989 RMK AO2 SLP114 T01940178 58009

More Conditions Fewer Conditions

Pressure 29.87 in
Visibility 10.0 miles
Clouds Few 6500 ft
Dew Point 65 °F
Humidity 96%
Rainfall in
Snow Depth Not available.
UV 0 out of 12
Pollen 7.50 out of 12
Air Quality Not available.
Flu Activity No Activity
METAR KTOP 030853Z AUTO 12006KT 10SM FEW065 19/18 A2989 RMK AO2 SLP114 T01940178 58009

More Conditions Fewer Conditions

10-Day Weather Forecast

×

Almanac

Astronomy

Jun. 03, 2015 Rise Set
Actual Time
Civil Twilight
Nautical Twilight
Astronomical Twilight
Moon
Length of Visible Light
Length of Day
Tomorrow will be .
, % of the Moon is Illuminated

Today's Extremes

State Highs State Lows

Community

WunderPhotos

Upload Photos

1,826,194 photos uploaded!

WunderBlogs® & News

Nearby

Air Quality

  Air Quality AQ Index Pollutant
Not available.

Snow Depth

Station Depth Elevation

Earthquake Activity

City Distance Mag. Time & Date
Minimum magnitude displayed is 2.5.

Coastal Water Temperatures

Place Temperature

Stations

Nearby Weather Stations

Station Location Temp. Windchill Dew Point Humidity Wind Precip. Elev Updated Type